Pagrindinis puslapis
METAR-TAF:

METAR-TAF

Oro uostai :

Tiandzinas, Kinija

platuma: 39-11N, ilguma: 117-21E, Aukštis: 3 m

Dabartinis oras

Ataskaita buvo paskelbta 37 minutes, ne 16:00 UTC
Vėjas 4 kt iš Rytų
Temperatūra 20°C
Drėgmė 56%
Slėgis 1009 hPa
Matomumas 10 km arba daugiau
nėra debesų žemiau 1500 m ir nėra kamuolinių lietaus debesų

METAR: ZBTJ 051600Z 08002MPS CAVOK 20/11 Q1009 NOSIG

Laikas: 00:37 (16:37 UTC)

Prognozė

Ataskaita buvo paskelbta 7 valandos ir 29 minutes, ne 09:08 UTC
Prognozė galioja nuo 05 metu 12 UTC su 06 metu 12 UTC
Vėjas 8 kt iš Rytų/Pietryčių
Matomumas: 5000 m
migla

TAF: ZBTJ 050908Z 0512/0612 11004MPS 5000 HZ NSC TX30/0607Z TN17/0521Z

Orai ataskaitas ir orų prognozės (METAR, TAF).

turimą stotys yra geltonos ir raudonos taškus žemėlapyje.

Perkelti pele per norėdami pamatyti stoties vardą.

Tada spustelėkite, norėdami matyti oro stebėjimo ir prognozės.

Norėdami pakeisti žemėlapį: spustelėkite ant žalios mygtukų su juodo kryžiaus žemyn,; žalią mygtuką su brūkšneliu, jei norite nutolinti; arba žalių rodyklių gretimoms žemėlapius.


METAR-TAF: